気象予報士の航空気象 欧州方面全滅

*All archives   *Admin

スポンサーサイト

上記の広告は1ヶ月以上更新のないブログに表示されています。
新しい記事を書く事で広告が消せます。
--:--  |  スポンサー広告  |  EDIT  |  Top↑

2010.04.16 (Fri)

欧州方面全滅

 火山噴火、突然であり、飛行機にとって、これはとても恐ろしいものです。


先日は、JAL407フランクフルト便以外は、全滅だったようです。


さきほど、HPで確認したところ、今日の日本発の欧州方面全滅です。


ヒースローを含め、イギリスの空港が現地時刻午前10時まで、少なくとも前面閉鎖のようです。


パリ・ドゴール空港でも閉鎖されたようです。


欧州全体でも3分の1程度、停まっているとか。


火山灰おそるべし。


EGLL 151220Z 06008KT 010V080 9999 FEW038 13/03 Q1023


天気はいいんですよ。


知らない方にとっては、状況が飲み込めず、困惑しているかもしれません。


 また、成田空港は、夜閉鎖します。


欧州方面からの引き返しを受け入れるため、めんどくさい(おそらく)行政続きを経て、運用時間の延長を行いました。



日航、全日空3便引き返し
    =アイスランドの火山噴火で-成田空港
   4月16日0時44分配信 時事通信

 アイスランドの火山が噴火した影響で、成田空港を離陸した日本航空と全日空の計3便が15日深夜までに、同空港へ引き返した。到着客は一様に疲れた表情を見せた。

 正午すぎに出発したロンドン行き全日空便は午後10時20分ごろ、成田に着陸した。日本に出張し、英国に戻る予定だった会社員八山浩司さん(40)は「突然機長から(引き返す)アナウンスが入り、もうがっくり。疲れた。今後は全日空が用意したホテルで考える」と苦り切った様子だった。

 午後11時50分すぎ、成田に到着したアムステルダム行き日航機の乗客で、定年退職を記念し夫婦で旅行する予定だった山岸はるおさん(66)は「機内アナウンスの時はびっくりしたが、乗客はあきらめた様子だった。40年待ったチャンスなのに残念。今後は未定です」と話し、同社が用意したホテルに向かうバスに乗り込んだ。

 成田空港会社によると、この影響で同空港の運用時間を16日未明まで延長した。

 全日空は同日の成田発のロンドン、パリ、フランクフルト行きの計3便の欠航を決定。英国の航空会社の成田発ロンドン行き2便も欠航が決まった。 

 
ブログランキングに参加しています。
にほんブログ村 環境ブログ 天気・気象学へ
にほんブログ村
応援クリックをおねがします。


以下、アフィリエイトサイトです。




スポンサーサイト
11:28  |  火山灰  |  TB(0)  |  CM(0)  |  EDIT  |  Top↑

コメントを投稿する


 管理者だけに表示  (非公開コメント投稿可能)

▲PageTop

この記事のトラックバックURL

→http://weathereucalyptus.blog115.fc2.com/tb.php/455-3b66b712
この記事にトラックバックする(FC2ブログユーザー)

この記事へのトラックバック

▲PageTop

 | BLOGTOP | 
上記広告は1ヶ月以上更新のないブログに表示されています。新しい記事を書くことで広告を消せます。